Time;durP1;ratioP1;P1;durP2;ratioP2;P2;SDS_P1;SDS_P2;PMS_P1;PMS_P2;Temp;Humidity;BMP_temperature;BMP_pressure;BME280_temperature;BME280_humidity;BME280_pressure;Samples;Min_cycle;Max_cycle;Signal;HPM_P1;HPM_P2
2021/07/26 00:00:19;;;;;;;;;;;;;;;20.99;58.08;101075.66;5158726;27;1037;-56
2021/07/26 00:02:44;;;;;;;;;;;;;;;21.20;58.34;101079.78;5158664;27;833;-61
2021/07/26 00:05:10;;;;;;;;;;;;;;;21.60;57.72;101089.78;5159126;27;1464;-61
2021/07/26 00:07:35;;;;;;;;;;;;;;;21.47;58.69;101083.03;5140592;27;799;-62
2021/07/26 00:10:03;;;;;;;;;;;;;;;20.96;60.46;101085.38;5158506;27;887;-62
2021/07/26 00:12:29;;;;;;;;;;;;;;;20.81;61.34;101086.38;5158165;27;952;-61
2021/07/26 00:14:54;;;;;;;;;;;;;;;20.52;60.09;101092.75;5158769;27;554;-61
2021/07/26 00:17:19;;;;;;;;;;;;;;;20.96;59.17;101087.31;5158206;27;1917;-61
2021/07/26 00:19:45;;;;;;;;;;;;;;;21.46;60.17;101086.91;5158498;27;740;-62
2021/07/26 00:22:10;;;;;;;;;;;;;;;21.75;59.11;101089.53;5158514;27;881;-49
2021/07/26 00:24:36;;;;;;;;;;;;;;;21.95;58.55;101085.63;5157311;27;791;-61
2021/07/26 00:27:01;;;;;;;;;;;;;;;21.98;58.46;101090.56;5158287;27;1011;-61
2021/07/26 00:29:27;;;;;;;;;;;;;;;21.88;58.56;101079.63;5140054;27;1171;-62
2021/07/26 00:31:52;;;;;;;;;;;;;;;21.13;61.23;101084.06;5158329;27;743;-63
2021/07/26 00:34:21;;;;;;;;;;;;;;;20.97;60.91;101077.88;5158523;27;762;-51
2021/07/26 00:36:46;;;;;;;;;;;;;;;20.94;58.97;101075.72;5158318;27;1909;-61
2021/07/26 00:39:13;;;;;;;;;;;;;;;21.38;60.84;101077.34;5158338;27;739;-61
2021/07/26 00:41:38;;;;;;;;;;;;;;;21.74;59.71;101076.00;5158330;27;953;-44
2021/07/26 00:44:04;;;;;;;;;;;;;;;21.87;59.22;101066.94;5158101;27;786;-61
2021/07/26 00:46:29;;;;;;;;;;;;;;;21.78;58.51;101074.28;5158201;27;850;-60
2021/07/26 00:48:55;;;;;;;;;;;;;;;21.49;58.00;101066.94;5158429;27;858;-61
2021/07/26 00:51:20;;;;;;;;;;;;;;;21.35;56.93;101066.88;5139192;27;854;-61
2021/07/26 00:53:46;;;;;;;;;;;;;;;20.97;56.18;101064.06;5139855;27;787;-61
2021/07/26 00:56:11;;;;;;;;;;;;;;;20.71;55.32;101058.88;5157870;27;984;-61
2021/07/26 00:58:36;;;;;;;;;;;;;;;20.71;54.37;101058.06;5157906;27;1988;-61
2021/07/26 01:01:02;;;;;;;;;;;;;;;20.47;53.99;101054.13;5157978;27;826;-56
2021/07/26 01:03:27;;;;;;;;;;;;;;;20.52;53.46;101044.97;5158397;27;759;-53
2021/07/26 01:05:53;;;;;;;;;;;;;;;20.51;53.82;101054.38;5157768;27;1232;-60
2021/07/26 01:08:18;;;;;;;;;;;;;;;20.69;55.01;101044.50;5158203;27;775;-46
2021/07/26 01:10:44;;;;;;;;;;;;;;;21.05;55.82;101049.59;5139374;27;839;-60
2021/07/26 01:13:09;;;;;;;;;;;;;;;21.29;56.64;101052.28;5158101;27;1055;-60
2021/07/26 01:15:35;;;;;;;;;;;;;;;21.60;56.56;101053.78;5157897;27;751;-60
2021/07/26 01:18:20;;;;;;;;;;;;;;;21.66;57.24;101052.59;5157642;27;1972;-61
2021/07/26 01:20:56;;;;;;;;;;;;;;;20.71;60.95;101056.13;5157864;27;743;-62
2021/07/26 01:23:21;;;;;;;;;;;;;;;20.71;61.23;101053.34;5158036;27;751;-61
2021/07/26 01:25:47;;;;;;;;;;;;;;;20.54;59.10;101051.03;5157580;27;736;-62
2021/07/26 01:28:16;;;;;;;;;;;;;;;21.23;59.73;101069.28;5157657;27;945;-61
2021/07/26 01:30:44;;;;;;;;;;;;;;;21.47;59.93;101058.94;5157384;27;794;-61
2021/07/26 01:33:10;;;;;;;;;;;;;;;21.59;59.32;101054.91;5157689;27;786;-61
2021/07/26 01:35:36;;;;;;;;;;;;;;;21.78;58.94;101055.72;5159176;27;779;-62
2021/07/26 01:38:02;;;;;;;;;;;;;;;21.34;60.25;101054.97;5162009;27;1922;-61
2021/07/26 01:40:28;;;;;;;;;;;;;;;20.85;62.12;101058.97;5161276;27;807;-62
2021/07/26 01:43:00;;;;;;;;;;;;;;;20.79;60.66;101052.69;5161099;27;948;-62
2021/07/26 01:45:26;;;;;;;;;;;;;;;20.85;59.74;101047.94;5161705;27;855;-62
2021/07/26 01:47:52;;;;;;;;;;;;;;;21.49;60.51;101044.78;5161666;27;755;-43
2021/07/26 01:50:18;;;;;;;;;;;;;;;21.75;59.48;101039.72;5161806;27;794;-58
2021/07/26 01:52:43;;;;;;;;;;;;;;;22.05;58.61;101043.09;5161555;27;826;-62
2021/07/26 01:55:09;;;;;;;;;;;;;;;21.98;58.79;101039.88;5160925;27;874;-56
2021/07/26 01:57:35;;;;;;;;;;;;;;;21.52;59.40;101034.00;5160766;27;1987;-63
2021/07/26 02:00:00;;;;;;;;;;;;;;;20.51;61.66;101033.09;5161420;27;767;-59
2021/07/26 02:02:27;;;;;;;;;;;;;;;20.18;60.18;101035.66;5160985;27;831;-62
2021/07/26 02:04:52;;;;;;;;;;;;;;;20.23;59.00;101037.56;5142366;27;1459;-61
2021/07/26 02:07:18;;;;;;;;;;;;;;;20.70;56.27;101035.13;5160596;27;810;-49
2021/07/26 02:09:43;;;;;;;;;;;;;;;20.92;55.36;101037.31;5161330;27;736;-61
2021/07/26 02:12:09;;;;;;;;;;;;;;;20.81;56.18;101030.28;5160810;27;1071;-56
2021/07/26 02:14:34;;;;;;;;;;;;;;;20.79;57.02;101038.88;5160759;27;806;-61
2021/07/26 02:17:00;;;;;;;;;;;;;;;21.09;56.58;101036.00;5160851;27;1913;-59
2021/07/26 02:19:25;;;;;;;;;;;;;;;21.09;56.85;101036.81;5160960;27;739;-43
2021/07/26 02:21:51;;;;;;;;;;;;;;;21.15;57.00;101043.94;5160287;27;783;-59
2021/07/26 02:24:17;;;;;;;;;;;;;;;21.15;57.46;101035.63;5161421;27;780;-60
2021/07/26 02:26:42;;;;;;;;;;;;;;;21.24;57.31;101034.94;5160489;27;952;-62
2021/07/26 02:29:08;;;;;;;;;;;;;;;21.40;56.91;101030.84;5160754;27;771;-55
2021/07/26 02:31:33;;;;;;;;;;;;;;;21.55;56.55;101024.28;5160590;27;798;-61
2021/07/26 02:33:59;;;;;;;;;;;;;;;;;;5160321;27;774;-55
2021/07/26 02:36:24;;;;;;;;;;;;;;;20.60;59.86;101024.16;5160716;27;874;-62
2021/07/26 02:38:49;;;;;;;;;;;;;;;20.33;60.13;101020.06;5160451;27;1909;-61
2021/07/26 02:41:15;;;;;;;;;;;;;;;20.37;59.44;101026.66;5160127;27;957;-62
2021/07/26 02:43:40;;;;;;;;;;;;;;;21.11;58.86;101022.69;5160306;27;810;-61
2021/07/26 02:46:06;;;;;;;;;;;;;;;21.43;58.13;101029.41;5160178;27;755;-62
2021/07/26 02:48:32;;;;;;;;;;;;;;;21.48;58.19;101030.16;5159394;27;839;-61
2021/07/26 02:50:57;;;;;;;;;;;;;;;21.80;57.53;101031.31;5160250;27;819;-43
2021/07/26 02:53:23;;;;;;;;;;;;;;;21.68;58.06;101030.97;5160088;27;747;-62
2021/07/26 02:55:48;;;;;;;;;;;;;;;20.63;62.00;101037.38;5160050;27;822;-53
2021/07/26 02:58:13;;;;;;;;;;;;;;;20.68;61.49;101038.19;5141470;27;1983;-62
2021/07/26 03:00:39;;;;;;;;;;;;;;;20.93;58.88;101040.91;5159871;27;831;-58
2021/07/26 03:03:04;;;;;;;;;;;;;;;21.23;60.50;101042.44;5160027;27;767;-61
2021/07/26 03:05:33;;;;;;;;;;;;;;;21.75;58.70;101048.00;5159809;27;1018;-60
2021/07/26 03:07:58;;;;;;;;;;;;;;;21.91;58.35;101044.97;5160176;27;828;-44
2021/07/26 03:10:24;;;;;;;;;;;;;;;21.97;58.16;101041.81;5159716;27;846;-59
2021/07/26 03:12:49;;;;;;;;;;;;;;;22.07;57.79;101043.59;5159198;27;953;-55
2021/07/26 03:15:15;;;;;;;;;;;;;;;21.07;60.11;101050.13;5159793;27;786;-58
2021/07/26 03:17:40;;;;;;;;;;;;;;;20.37;61.32;101043.22;5159496;27;1968;-50
2021/07/26 03:20:06;;;;;;;;;;;;;;;20.04;58.30;101033.88;5159688;27;779;-42
2021/07/26 03:22:47;;;;;;;;;;;;;;;20.25;58.36;101040.84;5159326;27;847;-41
2021/07/26 03:25:12;;;;;;;;;;;;;;;20.33;57.63;101045.72;5159392;27;767;-43
2021/07/26 03:27:38;;;;;;;;;;;;;;;20.87;56.43;101047.63;5159243;27;956;-43
2021/07/26 03:30:03;;;;;;;;;;;;;;;20.94;56.92;101057.19;5159438;27;831;-43
2021/07/26 03:32:29;;;;;;;;;;;;;;;21.14;56.67;101058.88;5159212;27;811;-54
2021/07/26 03:34:54;;;;;;;;;;;;;;;21.08;57.38;101054.50;5159755;27;731;-43
2021/07/26 03:37:20;;;;;;;;;;;;;;;21.33;57.00;101063.59;5159113;27;1925;-55
2021/07/26 03:39:45;;;;;;;;;;;;;;;21.34;57.10;101065.22;5159258;27;878;-42
2021/07/26 03:42:10;;;;;;;;;;;;;;;21.29;57.57;101054.22;5158913;27;961;-54
2021/07/26 03:44:36;;;;;;;;;;;;;;;21.50;56.91;101052.81;5158826;27;811;-43
2021/07/26 03:47:01;;;;;;;;;;;;;;;21.61;56.60;101059.03;5159378;27;870;-42
2021/07/26 03:49:27;;;;;;;;;;;;;;;21.58;56.66;101054.09;5159157;27;944;-42
2021/07/26 03:51:52;;;;;;;;;;;;;;;20.65;59.89;101060.00;5158213;27;1493;-58
2021/07/26 03:54:17;;;;;;;;;;;;;;;20.35;60.56;101056.47;5143061;27;820;-56
2021/07/26 03:56:43;;;;;;;;;;;;;;;20.08;59.64;101057.03;5151621;27;1968;-55
2021/07/26 03:59:08;;;;;;;;;;;;;;;21.04;59.20;101061.75;5138258;27;886;-44
2021/07/26 04:01:34;;;;;;;;;;;;;;;21.35;58.55;101062.16;5138240;27;811;-59
2021/07/26 04:03:59;;;;;;;;;;;;;;;21.47;58.35;101064.47;5144623;27;751;-56
2021/07/26 04:06:25;;;;;;;;;;;;;;;21.58;58.37;101067.13;5167409;27;1548;-60
2021/07/26 04:08:52;;;;;;;;;;;;;;;21.79;58.02;101071.19;5176647;27;1397;-60
2021/07/26 04:11:31;;;;;;;;;;;;;;;21.12;60.27;101071.34;5165712;27;873;-58
2021/07/26 04:14:01;;;;;;;;;;;;;;;20.88;61.23;101079.69;5164339;27;1006;-44
2021/07/26 04:16:26;;;;;;;;;;;;;;;20.72;58.22;101077.09;5158361;27;766;-46
2021/07/26 04:18:53;;;;;;;;;;;;;;;21.06;60.29;101081.66;5158752;27;1980;-57
2021/07/26 04:21:19;;;;;;;;;;;;;;;21.50;60.19;101088.78;5139953;27;791;-46
2021/07/26 04:23:44;;;;;;;;;;;;;;;21.81;59.25;101081.97;5158307;27;778;-57
2021/07/26 04:26:10;;;;;;;;;;;;;;;21.81;59.25;101085.56;5157992;27;1008;-57
2021/07/26 04:28:35;;;;;;;;;;;;;;;21.73;59.46;101083.50;5158378;27;799;-44
2021/07/26 04:31:01;;;;;;;;;;;;;;;21.00;62.00;101077.31;5158134;27;839;-57
2021/07/26 04:33:26;;;;;;;;;;;;;;;20.83;62.14;101077.78;5158087;27;787;-57
2021/07/26 04:35:52;;;;;;;;;;;;;;;20.72;58.90;101076.25;5158191;27;755;-44
2021/07/26 04:38:18;;;;;;;;;;;;;;;21.38;59.92;101080.13;5158353;27;1906;-44
2021/07/26 04:40:43;;;;;;;;;;;;;;;21.46;61.34;101073.91;5158130;27;818;-57
2021/07/26 04:43:09;;;;;;;;;;;;;;;21.87;59.70;101073.28;5157589;27;949;-52
2021/07/26 04:45:34;;;;;;;;;;;;;;;21.90;59.58;101071.03;5157948;27;767;-60
2021/07/26 04:48:00;;;;;;;;;;;;;;;21.63;60.26;101080.88;5158095;27;791;-49
2021/07/26 04:50:25;;;;;;;;;;;;;;;21.20;61.70;101076.22;5158570;27;837;-60
2021/07/26 04:52:51;;;;;;;;;;;;;;;21.10;60.40;101071.66;5158141;27;802;-60
2021/07/26 04:55:16;;;;;;;;;;;;;;;21.18;58.31;101082.03;5157480;27;754;-58
2021/07/26 04:57:42;;;;;;;;;;;;;;;21.34;61.46;101076.28;5144866;27;1913;-58
2021/07/26 05:00:07;;;;;;;;;;;;;;;21.64;59.18;101085.28;5171852;27;1334;-58
2021/07/26 05:02:33;;;;;;;;;;;;;;;21.86;60.13;101085.47;5178884;27;770;-57
2021/07/26 05:05:01;;;;;;;;;;;;;;;22.03;59.83;101089.63;5166796;27;986;-45
2021/07/26 05:07:26;;;;;;;;;;;;;;;21.43;61.86;101093.84;5162500;27;1481;-56
2021/07/26 05:09:52;;;;;;;;;;;;;;;21.24;62.05;101095.78;5167253;27;1461;-56
2021/07/26 05:12:17;;;;;;;;;;;;;;;21.09;58.84;101092.13;5170616;27;952;-56
2021/07/26 05:14:43;;;;;;;;;;;;;;;21.48;59.51;101091.03;5161956;27;747;-57
2021/07/26 05:17:08;;;;;;;;;;;;;;;21.89;61.09;101103.44;5161999;27;1909;-52
2021/07/26 05:19:34;;;;;;;;;;;;;;;22.13;60.81;101096.94;5162401;27;762;-50
2021/07/26 05:21:59;;;;;;;;;;;;;;;22.11;60.74;101102.78;5164466;27;756;-48
2021/07/26 05:24:25;;;;;;;;;;;;;;;21.63;62.42;101106.63;5161931;27;538;-59
2021/07/26 05:26:58;;;;;;;;;;;;;;;21.83;60.55;101111.00;5161513;27;961;-58
2021/07/26 05:29:23;;;;;;;;;;;;;;;21.09;55.44;101114.22;5161814;27;811;-57
2021/07/26 05:31:49;;;;;;;;;;;;;;;21.12;56.76;101113.63;5161884;27;779;-49
2021/07/26 05:34:14;;;;;;;;;;;;;;;21.06;57.44;101120.38;5160980;27;823;-58
2021/07/26 05:36:40;;;;;;;;;;;;;;;20.57;56.44;101118.69;5161739;27;1894;-56
2021/07/26 05:39:06;;;;;;;;;;;;;;;20.49;54.94;101120.13;5161814;27;810;-59
2021/07/26 05:41:31;;;;;;;;;;;;;;;20.61;53.18;101119.75;5161478;27;909;-62
2021/07/26 05:43:56;;;;;;;;;;;;;;;20.49;53.43;101123.72;5161902;27;798;-58
2021/07/26 05:46:22;;;;;;;;;;;;;;;20.58;53.77;101128.59;5160703;27;889;-58
2021/07/26 05:48:47;;;;;;;;;;;;;;;20.66;55.14;101119.69;5161424;27;743;-58
2021/07/26 05:51:13;;;;;;;;;;;;;;;20.94;55.97;101123.53;5161221;27;1106;-57
2021/07/26 05:53:38;;;;;;;;;;;;;;;21.05;56.66;101118.72;5161360;27;744;-57
2021/07/26 05:56:05;;;;;;;;;;;;;;;21.29;56.91;101117.84;5161085;27;952;-57
2021/07/26 05:58:32;;;;;;;;;;;;;;;21.43;57.16;101118.75;5170004;27;1984;-58
2021/07/26 06:01:09;;;;;;;;;;;;;;;21.69;56.87;101115.66;5161797;27;1219;-63
2021/07/26 06:03:35;;;;;;;;;;;;;;;21.32;58.57;101118.09;5170848;27;1026;-61
2021/07/26 06:06:02;;;;;;;;;;;;;;;20.98;60.16;101112.72;5181665;27;962;-61
2021/07/26 06:08:27;;;;;;;;;;;;;;;20.81;60.06;101114.00;5182031;27;750;-60
2021/07/26 06:10:53;;;;;;;;;;;;;;;20.24;59.92;101108.22;5181511;27;936;-61
2021/07/26 06:13:18;;;;;;;;;;;;;;;21.09;61.07;101105.94;5160234;27;823;-45
2021/07/26 06:15:44;;;;;;;;;;;;;;;21.61;59.30;101108.03;5160938;27;754;-58
2021/07/26 06:18:09;;;;;;;;;;;;;;;21.83;58.65;101105.47;5165814;27;1913;-56
2021/07/26 06:20:35;;;;;;;;;;;;;;;21.52;59.63;101108.69;5166471;27;1465;-57
2021/07/26 06:23:00;;;;;;;;;;;;;;;21.17;60.84;101112.78;5171213;27;1394;-55
2021/07/26 06:25:26;;;;;;;;;;;;;;;20.90;61.45;101122.50;5164898;27;785;-56
2021/07/26 06:27:53;;;;;;;;;;;;;;;20.74;59.67;101121.84;5160956;27;1303;-58
2021/07/26 06:30:19;;;;;;;;;;;;;;;21.10;60.53;101121.41;5169102;27;1195;-46
2021/07/26 06:32:44;;;;;;;;;;;;;;;21.55;60.53;101125.84;5174934;27;1530;-58
2021/07/26 06:35:10;;;;;;;;;;;;;;;21.85;59.30;101127.31;5165186;27;1366;-47
2021/07/26 06:37:35;;;;;;;;;;;;;;;21.88;59.21;101135.00;5163498;27;1917;-58
2021/07/26 06:40:02;;;;;;;;;;;;;;;21.44;60.46;101130.66;5160449;27;735;-43
2021/07/26 06:42:28;;;;;;;;;;;;;;;21.14;62.00;101136.31;5160203;27;961;-59
2021/07/26 06:44:53;;;;;;;;;;;;;;;20.77;61.24;101124.00;5160202;27;735;-60
2021/07/26 06:47:19;;;;;;;;;;;;;;;20.93;58.62;101134.88;5160106;27;807;-44
2021/07/26 06:49:44;;;;;;;;;;;;;;;21.59;60.39;101137.94;5159974;27;851;-60
2021/07/26 06:52:10;;;;;;;;;;;;;;;21.59;60.06;101137.94;5160023;27;748;-57
2021/07/26 06:54:35;;;;;;;;;;;;;;;21.96;59.83;101141.81;5160239;27;944;-58
2021/07/26 06:57:01;;;;;;;;;;;;;;;21.81;60.77;101140.09;5159740;27;1918;-43
2021/07/26 06:59:26;;;;;;;;;;;;;;;21.70;61.77;101136.69;5160080;27;877;-56
2021/07/26 07:01:52;;;;;;;;;;;;;;;21.00;61.03;101136.19;5160426;27;1323;-42
2021/07/26 07:04:17;;;;;;;;;;;;;;;20.15;57.40;101130.13;5161784;27;1007;-46
2021/07/26 07:06:43;;;;;;;;;;;;;;;20.44;58.65;101126.56;5159357;27;1061;-42
2021/07/26 07:09:08;;;;;;;;;;;;;;;20.57;56.98;101133.31;5159654;27;786;-43
2021/07/26 07:11:34;;;;;;;;;;;;;;;20.29;55.41;101135.78;5159759;27;918;-58
2021/07/26 07:13:59;;;;;;;;;;;;;;;20.13;53.81;101137.88;5159116;27;866;-53
2021/07/26 07:16:25;;;;;;;;;;;;;;;20.06;53.42;101137.34;5159843;27;838;-42
2021/07/26 07:18:51;;;;;;;;;;;;;;;20.54;56.38;101147.72;5159708;27;1988;-52
2021/07/26 07:21:17;;;;;;;;;;;;;;;21.05;58.44;101146.34;5159765;27;854;-57
2021/07/26 07:23:42;;;;;;;;;;;;;;;21.51;59.48;101147.69;5160065;27;739;-43
2021/07/26 07:26:08;;;;;;;;;;;;;;;21.28;61.77;101144.69;5159169;27;826;-54
2021/07/26 07:28:33;;;;;;;;;;;;;;;21.45;62.42;101141.41;5158868;27;854;-43
2021/07/26 07:30:58;;;;;;;;;;;;;;;21.43;60.66;101143.66;5166468;27;1480;-48
2021/07/26 07:33:25;;;;;;;;;;;;;;;21.42;56.84;101142.03;5170296;27;1469;-57
2021/07/26 07:35:50;;;;;;;;;;;;;;;21.57;58.94;101137.41;5159643;27;810;-49
2021/07/26 07:38:16;;;;;;;;;;;;;;;21.99;61.23;101141.19;5159162;27;1917;-48
2021/07/26 07:40:41;;;;;;;;;;;;;;;22.19;62.52;101140.06;5159607;27;763;-58
2021/07/26 07:43:07;;;;;;;;;;;;;;;22.31;62.79;101139.56;5158420;27;835;-43
2021/07/26 07:45:32;;;;;;;;;;;;;;;22.09;63.35;101135.50;5159153;27;846;-44
2021/07/26 07:47:58;;;;;;;;;;;;;;;21.83;61.78;101132.31;5159241;27;751;-58
2021/07/26 07:50:24;;;;;;;;;;;;;;;21.00;57.09;101135.38;5158968;27;743;-42
2021/07/26 07:52:49;;;;;;;;;;;;;;;21.27;58.65;101137.50;5158990;27;754;-56
2021/07/26 07:55:15;;;;;;;;;;;;;;;21.44;58.53;101142.53;5158197;27;823;-60
2021/07/26 07:57:40;;;;;;;;;;;;;;;21.24;58.63;101148.31;5158476;27;1984;-56
2021/07/26 08:00:06;;;;;;;;;;;;;;;21.15;57.08;101146.25;5158895;27;795;-56
2021/07/26 08:02:32;;;;;;;;;;;;;;;21.12;56.08;101151.53;5158606;27;798;-43
2021/07/26 08:04:58;;;;;;;;;;;;;;;20.96;55.77;101153.66;5158802;27;1018;-54
2021/07/26 08:07:23;;;;;;;;;;;;;;;21.00;55.05;101154.72;5158737;27;859;-46
2021/07/26 08:09:49;;;;;;;;;;;;;;;20.70;55.60;101144.84;5140168;27;1172;-46
2021/07/26 08:12:14;;;;;;;;;;;;;;;20.89;54.56;101156.78;5158582;27;969;-42
2021/07/26 08:14:40;;;;;;;;;;;;;;;20.77;54.81;101157.16;5161455;27;1500;-51
2021/07/26 08:17:05;;;;;;;;;;;;;;;21.13;54.70;101147.66;5157780;27;1910;-42
2021/07/26 08:19:30;;;;;;;;;;;;;;;;;;5157973;27;890;-54
2021/07/26 08:21:56;;;;;;;;;;;;;;;21.23;56.29;101141.19;5157545;27;911;-44
2021/07/26 08:24:21;;;;;;;;;;;;;;;21.57;56.00;101142.94;5167964;27;825;-50
2021/07/26 08:26:47;;;;;;;;;;;;;;;21.41;56.61;101145.91;5158337;27;957;-50
2021/07/26 08:29:12;;;;;;;;;;;;;;;21.00;58.43;101140.91;5158190;27;831;-43
2021/07/26 08:31:38;;;;;;;;;;;;;;;20.94;58.74;101142.06;5158677;27;775;-58
2021/07/26 08:34:03;;;;;;;;;;;;;;;20.27;57.89;101138.03;5157910;27;870;-47
2021/07/26 08:36:29;;;;;;;;;;;;;;;20.84;59.38;101143.00;5158113;27;807;-56
2021/07/26 08:38:54;;;;;;;;;;;;;;;21.22;59.11;101140.34;5158127;27;1980;-56
2021/07/26 08:41:20;;;;;;;;;;;;;;;21.82;58.91;101148.09;5158027;27;1017;-43
2021/07/26 08:43:45;;;;;;;;;;;;;;;21.74;60.53;101148.81;5158129;27;826;-56
2021/07/26 08:46:11;;;;;;;;;;;;;;;21.96;61.23;101156.47;5156667;27;815;-56
2021/07/26 08:48:37;;;;;;;;;;;;;;;21.66;61.46;101152.25;5158061;27;807;-54
2021/07/26 08:51:03;;;;;;;;;;;;;;;20.86;58.24;101143.56;5158093;27;831;-44
2021/07/26 08:53:29;;;;;;;;;;;;;;;21.27;58.55;101142.22;5161062;27;1437;-41
2021/07/26 08:55:54;;;;;;;;;;;;;;;20.96;59.74;101145.38;5152001;27;1288;-61
2021/07/26 08:58:20;;;;;;;;;;;;;;;20.74;59.17;101146.72;5144286;27;1992;-58
2021/07/26 09:00:45;;;;;;;;;;;;;;;20.80;56.79;101137.25;5139284;27;915;-58
2021/07/26 09:03:10;;;;;;;;;;;;;;;20.75;55.41;101144.75;5143538;27;1516;-56
2021/07/26 09:05:36;;;;;;;;;;;;;;;20.78;55.18;101135.91;5166982;27;1413;-51
2021/07/26 09:08:02;;;;;;;;;;;;;;;21.43;56.37;101135.34;5166926;27;1477;-54
2021/07/26 09:10:28;;;;;;;;;;;;;;;21.67;58.92;101145.56;5175831;27;866;-47
2021/07/26 09:12:54;;;;;;;;;;;;;;;21.30;62.32;101145.22;5139341;27;1357;-57
2021/07/26 09:15:23;;;;;;;;;;;;;;;21.46;62.84;101145.00;5158161;27;859;-53
2021/07/26 09:17:48;;;;;;;;;;;;;;;21.30;59.51;101147.97;5123997;27;1986;-52
2021/07/26 09:20:15;;;;;;;;;;;;;;;20.93;58.41;101140.41;5178651;27;499;-59
2021/07/26 09:22:46;;;;;;;;;;;;;;;21.31;60.72;101141.34;5178930;27;763;-57
2021/07/26 09:25:16;;;;;;;;;;;;;;;21.49;61.00;101133.34;5140599;27;878;-56
2021/07/26 09:28:00;;;;;;;;;;;;;;;21.49;60.32;101139.72;5157659;27;866;-62
2021/07/26 09:30:26;;;;;;;;;;;;;;;21.37;59.22;101128.25;5175738;27;759;-57
2021/07/26 09:32:52;;;;;;;;;;;;;;;21.28;58.66;101133.63;5178552;27;759;-60
2021/07/26 09:35:18;;;;;;;;;;;;;;;21.32;57.96;101131.06;5164855;27;767;-60
2021/07/26 09:37:44;;;;;;;;;;;;;;;21.09;58.39;101130.00;5140680;27;1982;-60
2021/07/26 09:40:19;;;;;;;;;;;;;;;20.81;59.18;101129.78;5150145;27;1497;-59
2021/07/26 09:42:45;;;;;;;;;;;;;;;20.59;57.98;101128.31;5169777;27;1136;-60
2021/07/26 09:45:20;;;;;;;;;;;;;;;20.46;58.59;101129.81;5165724;27;1394;-60
2021/07/26 09:48:04;;;;;;;;;;;;;;;20.84;58.54;101132.75;5167132;27;1513;-60
2021/07/26 09:50:42;;;;;;;;;;;;;;;21.07;57.82;101130.31;5170664;27;814;-60
2021/07/26 09:53:08;;;;;;;;;;;;;;;21.30;57.09;101133.34;5169916;27;1338;-60
2021/07/26 09:55:34;;;;;;;;;;;;;;;21.34;56.82;101135.19;5157874;27;1346;-43
2021/07/26 09:58:00;;;;;;;;;;;;;;;21.35;56.93;101131.31;5168278;27;1913;-57
2021/07/26 10:00:25;;;;;;;;;;;;;;;20.87;58.52;101138.84;5179968;27;802;-60
2021/07/26 10:02:51;;;;;;;;;;;;;;;20.68;59.52;101134.06;5165765;27;766;-60
2021/07/26 10:05:16;;;;;;;;;;;;;;;20.34;58.80;101132.16;5176040;27;1014;-59
2021/07/26 10:07:42;;;;;;;;;;;;;;;20.32;59.46;101124.16;5162929;27;809;-58
2021/07/26 10:10:07;;;;;;;;;;;;;;;21.12;59.80;101133.00;5151102;27;1489;-42
2021/07/26 10:12:33;;;;;;;;;;;;;;;21.79;59.45;101122.97;5170519;27;1120;-42
2021/07/26 10:14:59;;;;;;;;;;;;;;;21.83;60.78;101133.13;5177100;27;822;-47
2021/07/26 10:17:24;;;;;;;;;;;;;;;21.81;61.81;101117.94;5143133;27;1913;-42
2021/07/26 10:19:50;;;;;;;;;;;;;;;21.43;61.11;101129.81;5160887;27;755;-53
2021/07/26 10:22:16;;;;;;;;;;;;;;;20.79;57.14;101121.78;5160768;27;842;-42
2021/07/26 10:24:44;;;;;;;;;;;;;;;21.06;58.61;101114.84;5142376;27;913;-45
2021/07/26 10:27:11;;;;;;;;;;;;;;;20.86;60.16;101110.38;5160663;27;885;-58
2021/07/26 10:29:48;;;;;;;;;;;;;;;20.96;58.72;101113.03;5139688;27;834;-55
2021/07/26 10:32:29;;;;;;;;;;;;;;;20.74;56.77;101107.22;5140026;27;822;-42
2021/07/26 10:34:58;;;;;;;;;;;;;;;20.52;55.70;101103.81;5139736;27;782;-42
2021/07/26 10:37:42;;;;;;;;;;;;;;;20.63;56.95;101100.94;5139853;27;1917;-50
2021/07/26 10:40:26;;;;;;;;;;;;;;;21.18;58.72;101109.69;5153489;27;1362;-60
2021/07/26 10:42:52;;;;;;;;;;;;;;;21.23;61.54;101108.00;5169136;27;1193;-57
2021/07/26 10:45:35;;;;;;;;;;;;;;;21.46;62.65;101096.03;5160961;27;846;-59
2021/07/26 10:48:33;;;;;;;;;;;;;;;21.36;61.21;101101.69;5160255;27;747;-49
2021/07/26 10:51:02;;;;;;;;;;;;;;;20.58;57.85;101103.75;5098475;27;1240;-42
2021/07/26 10:53:37;;;;;;;;;;;;;;;21.12;59.55;101104.53;5154859;27;1433;-42
2021/07/26 10:56:09;;;;;;;;;;;;;;;21.05;59.26;101090.25;5165049;27;1274;-43
2021/07/26 10:58:38;;;;;;;;;;;;;;;20.90;58.30;101096.78;5160147;27;1913;-56
2021/07/26 11:01:26;;;;;;;;;;;;;;;20.89;56.63;101092.38;5160214;27;835;-56
2021/07/26 11:03:54;;;;;;;;;;;;;;;20.80;55.31;101095.81;5160152;27;815;-42
2021/07/26 11:06:35;;;;;;;;;;;;;;;20.68;55.13;101098.16;5159223;27;1164;-47
2021/07/26 11:09:19;;;;;;;;;;;;;;;20.58;55.46;101100.97;5159263;27;743;-45
2021/07/26 11:11:45;;;;;;;;;;;;;;;21.25;56.93;101100.19;5159516;27;918;-47
2021/07/26 11:14:12;;;;;;;;;;;;;;;21.65;59.07;101109.06;5159892;27;854;-56
2021/07/26 11:16:56;;;;;;;;;;;;;;;22.01;60.07;101108.50;5159675;27;850;-49
2021/07/26 11:19:30;;;;;;;;;;;;;;;21.72;61.87;101101.22;5159200;27;831;-57
2021/07/26 11:21:55;;;;;;;;;;;;;;;21.57;61.79;101095.91;5160478;27;1386;-57
2021/07/26 11:24:50;;;;;;;;;;;;;;;20.60;57.92;101096.81;5143634;27;1161;-46
2021/07/26 11:27:16;;;;;;;;;;;;;;;20.73;59.43;101098.06;5145817;27;1320;-56
2021/07/26 11:29:47;;;;;;;;;;;;;;;21.01;59.74;101090.00;5159607;27;794;-57
2021/07/26 11:32:13;;;;;;;;;;;;;;;21.15;59.35;101087.34;5158831;27;811;-42
2021/07/26 11:34:39;;;;;;;;;;;;;;;21.26;58.62;101083.31;5159333;27;870;-43
2021/07/26 11:37:05;;;;;;;;;;;;;;;21.58;57.40;101097.56;5159192;27;1909;-58
2021/07/26 11:39:42;;;;;;;;;;;;;;;21.34;57.81;101093.72;5159351;27;739;-43
2021/07/26 11:42:07;;;;;;;;;;;;;;;21.43;57.40;101088.31;5158673;27;968;-56
2021/07/26 11:44:33;;;;;;;;;;;;;;;20.80;59.54;101087.53;5158237;27;867;-43
2021/07/26 11:46:59;;;;;;;;;;;;;;;20.85;59.48;101086.63;5159241;27;795;-43
2021/07/26 11:49:24;;;;;;;;;;;;;;;20.21;58.46;101085.91;5159154;27;818;-43
2021/07/26 11:51:50;;;;;;;;;;;;;;;20.87;59.38;101083.56;5158541;27;770;-55
2021/07/26 11:54:15;;;;;;;;;;;;;;;21.46;59.52;101089.66;5140641;27;831;-59
2021/07/26 11:56:41;;;;;;;;;;;;;;;21.84;60.12;101093.28;5139918;27;1148;-53
2021/07/26 11:59:16;;;;;;;;;;;;;;;21.76;61.72;101096.72;5158735;27;1971;-59
2021/07/26 12:01:55;;;;;;;;;;;;;;;21.48;62.79;101098.50;5158899;27;807;-60
2021/07/26 12:04:20;;;;;;;;;;;;;;;21.11;57.70;101095.41;5157002;27;1544;-43
2021/07/26 12:06:53;;;;;;;;;;;;;;;21.00;59.23;101096.69;5157795;27;1081;-58
2021/07/26 12:09:18;;;;;;;;;;;;;;;20.83;61.17;101095.22;5179759;27;849;-55
2021/07/26 12:11:44;;;;;;;;;;;;;;;21.39;58.93;101094.75;5159484;27;939;-59
2021/07/26 12:14:25;;;;;;;;;;;;;;;21.29;57.75;101102.06;5158614;27;810;-57
2021/07/26 12:17:00;;;;;;;;;;;;;;;21.14;57.41;101093.97;5159162;27;1968;-56
2021/07/26 12:19:25;;;;;;;;;;;;;;;21.11;56.71;101089.91;5158539;27;818;-55
2021/07/26 12:21:51;;;;;;;;;;;;;;;21.08;56.18;101096.00;5139338;27;1099;-57
2021/07/26 12:24:36;;;;;;;;;;;;;;;21.09;55.96;101091.31;5157709;27;859;-47
2021/07/26 12:27:02;;;;;;;;;;;;;;;21.26;55.01;101088.03;5157906;27;1403;-58
2021/07/26 12:29:29;;;;;;;;;;;;;;;21.28;54.74;101083.00;5158431;27;871;-50
2021/07/26 12:32:04;;;;;;;;;;;;;;;21.18;54.82;101082.03;5158506;27;814;-44
2021/07/26 12:34:30;;;;;;;;;;;;;;;21.10;55.00;101077.19;5167500;27;1516;-59
2021/07/26 12:37:05;;;;;;;;;;;;;;;21.27;54.40;101075.84;5162352;27;1913;-58
2021/07/26 12:39:40;;;;;;;;;;;;;;;20.57;56.35;101075.31;5165131;27;1590;-59
2021/07/26 12:42:21;;;;;;;;;;;;;;;20.43;56.86;101077.94;5164916;27;1334;-41
2021/07/26 12:44:46;;;;;;;;;;;;;;;19.72;56.70;101074.69;5171572;27;1417;-60
2021/07/26 12:47:24;;;;;;;;;;;;;;;20.29;57.16;101074.22;5172015;27;1397;-53
2021/07/26 12:49:50;;;;;;;;;;;;;;;20.72;56.02;101071.59;5167379;27;1341;-60
2021/07/26 12:52:16;;;;;;;;;;;;;;;21.05;55.87;101071.72;5164619;27;1532;-59
2021/07/26 12:54:42;;;;;;;;;;;;;;;21.07;56.20;101066.72;5164535;27;1377;-53